Time;durP1;ratioP1;P1;durP2;ratioP2;P2;SDS_P1;SDS_P2;PMS_P1;PMS_P2;Temp;Humidity;BMP_temperature;BMP_pressure;BME280_temperature;BME280_humidity;BME280_pressure;Samples;Min_cycle;Max_cycle;Signal;HPM_P1;HPM_P2
2021/12/13 00:00:02;;;;;;;;;;;;;;;;;;5088104;28;19935;-70
2021/12/13 00:02:29;;;;;;;;;;;;;;;;;;5089061;28;19924;-69
2021/12/13 00:04:55;;;;;;;;;;;;;;;;;;5084007;28;19924;-68
2021/12/13 00:07:22;;;;;;;;;;;;;;;;;;5084362;28;19924;-69
2021/12/13 00:09:50;;;;;;;;;;;;;;;;;;5086361;28;20389;-69
2021/12/13 00:12:16;;;;;;;;;;;;;;;;;;5084966;28;20021;-70
2021/12/13 00:14:43;;;;;;;;;;;;;;;;;;5086210;28;19924;-70
2021/12/13 00:17:10;;;;;;;;;;;;;;;;;;5089608;28;19924;-71
2021/12/13 00:19:37;;;;;;;;;;;;;;;;;;5087373;28;19924;-71
2021/12/13 00:22:04;;;;;;;;;;;;;;;;;;5085745;28;19925;-70
2021/12/13 00:24:31;;;;;;;;;;;;;;;;;;5084728;28;20381;-70
2021/12/13 00:26:58;;;;;;;;;;;;;;;;;;5085974;28;19931;-69
2021/12/13 00:29:25;;;;;;;;;;;;;;;;;;5088886;28;19930;-69
2021/12/13 00:31:52;;;;;;;;;;;;;;;;;;5082720;28;19924;-70
2021/12/13 00:34:19;;;;;;;;;;;;;;;;;;5086464;28;19932;-70
2021/12/13 00:36:47;;;;;;;;;;;;;;;;;;5085747;28;19932;-70
2021/12/13 00:39:14;;;;;;;;;;;;;;;;;;5081410;28;19938;-70
2021/12/13 00:41:41;;;;;;;;;;;;;;;;;;5077618;28;19925;-70
2021/12/13 00:44:08;;;;;;;;;;;;;;;;;;5084268;28;19932;-71
2021/12/13 00:46:35;;;;;;;;;;;;;;;;;;5083645;28;19931;-71
2021/12/13 00:49:01;;;;;;;;;;;;;;;;;;5082995;28;19947;-72
2021/12/13 00:51:28;;;;;;;;;;;;;;;;;;5086855;28;20339;-71
2021/12/13 00:53:55;;;;;;;;;;;;;;;;;;5085632;28;19932;-70
2021/12/13 00:56:22;;;;;;;;;;;;;;;;;;5085188;28;19924;-71
2021/12/13 00:58:49;;;;;;;;;;;;;;;;;;5081749;28;20332;-71
2021/12/13 01:01:16;;;;;;;;;;;;;;;;;;5086688;28;19951;-71
2021/12/13 01:03:43;;;;;;;;;;;;;;;;;;5085729;28;20693;-70
2021/12/13 01:06:10;;;;;;;;;;;;;;;;;;5088166;28;19924;-71
2021/12/13 01:08:37;;;;;;;;;;;;;;;;;;5086899;28;20475;-72
2021/12/13 01:11:05;;;;;;;;;;;;;;;;;;5084572;28;19932;-71
2021/12/13 01:13:31;;;;;;;;;;;;;;;;;;5081391;28;20375;-71
2021/12/13 01:16:00;;;;;;;;;;;;;;;;;;5078336;28;19939;-70
2021/12/13 01:18:30;;;;;;;;;;;;;;;;;;5082473;28;20524;-70
2021/12/13 01:21:02;;;;;;;;;;;;;;;;;;5084670;28;19987;-70
2021/12/13 01:23:40;;;;;;;;;;;;;;;;;;5082902;28;20278;-70
2021/12/13 01:26:28;;;;;;;;;;;;;;;;;;5086646;28;20331;-70
2021/12/13 01:28:55;;;;;;;;;;;;;;;;;;5083145;28;19931;-71
2021/12/13 01:31:22;;;;;;;;;;;;;;;;;;5087047;28;19924;-70
2021/12/13 01:33:49;;;;;;;;;;;;;;;;;;5086297;28;19928;-70
2021/12/13 01:36:17;;;;;;;;;;;;;;;;;;5083701;28;20013;-71
2021/12/13 01:38:45;;;;;;;;;;;;;;;;;;5086081;28;19928;-70
2021/12/13 01:41:12;;;;;;;;;;;;;;;;;;5084580;28;20011;-71
2021/12/13 01:43:38;;;;;;;;;;;;;;;;;;5086039;28;19931;-70
2021/12/13 01:46:05;;;;;;;;;;;;;;;;;;5087174;28;19924;-70
2021/12/13 01:48:32;;;;;;;;;;;;;;;;;;5087237;28;20381;-70
2021/12/13 01:51:05;;;;;;;;;;;;;;;;;;5085870;28;19925;-70
2021/12/13 01:53:32;;;;;;;;;;;;;;;;;;5081702;28;19927;-70
2021/12/13 01:55:59;;;;;;;;;;;;;;;;;;5086246;28;20393;-70
2021/12/13 01:58:38;;;;;;;;;;;;;;;;;;5085470;28;19931;-71
2021/12/13 02:01:11;;;;;;;;;;;;;;;;;;5088363;28;20124;-71
2021/12/13 02:03:38;;;;;;;;;;;;;;;;;;5084498;28;19931;-70
2021/12/13 02:06:05;;;;;;;;;;;;;;;;;;5080051;28;19924;-70
2021/12/13 02:08:32;;;;;;;;;;;;;;;;;;5086619;28;19925;-69
2021/12/13 02:10:59;;;;;;;;;;;;;;;;;;5087266;28;19924;-69
2021/12/13 02:13:26;;;;;;;;;;;;;;;;;;5084547;28;19924;-70
2021/12/13 02:18:38;;;;;;;;;;;;;;;;;;5082697;28;20703;-70
2021/12/13 02:21:06;;;;;;;;;;;;;;;;;;5082170;28;19928;-70
2021/12/13 02:23:33;;;;;;;;;;;;;;;;;;5085690;28;19943;-70
2021/12/13 02:26:00;;;;;;;;;;;;;;;;;;5086092;28;19936;-71
2021/12/13 02:28:27;;;;;;;;;;;;;;;;;;5073937;28;19980;-71
2021/12/13 02:30:54;;;;;;;;;;;;;;;;;;5081378;28;19928;-70
2021/12/13 02:33:21;;;;;;;;;;;;;;;;;;5088380;28;20381;-70
2021/12/13 02:35:48;;;;;;;;;;;;;;;;;;5084420;28;19997;-71
2021/12/13 02:38:15;;;;;;;;;;;;;;;;;;5085151;28;19924;-69
2021/12/13 02:40:42;;;;;;;;;;;;;;;;;;5087475;28;19928;-71
2021/12/13 02:43:09;;;;;;;;;;;;;;;;;;5089759;28;19924;-70
2021/12/13 02:45:42;;;;;;;;;;;;;;;;;;5087718;28;19924;-70
2021/12/13 02:48:09;;;;;;;;;;;;;;;;;;5090748;28;19947;-70
2021/12/13 02:50:36;;;;;;;;;;;;;;;;;;5089459;28;19935;-70
2021/12/13 02:53:03;;;;;;;;;;;;;;;;;;5086784;28;19924;-70
2021/12/13 02:55:30;;;;;;;;;;;;;;;;;;5088608;28;19924;-69
2021/12/13 02:57:57;;;;;;;;;;;;;;;;;;5087770;28;19924;-70
2021/12/13 03:00:24;;;;;;;;;;;;;;;;;;5090505;28;20158;-70
2021/12/13 03:02:51;;;;;;;;;;;;;;;;;;5085753;28;19925;-70
2021/12/13 03:05:18;;;;;;;;;;;;;;;;;;5089499;28;19924;-70
2021/12/13 03:07:45;;;;;;;;;;;;;;;;;;5089212;28;19924;-69
2021/12/13 03:10:12;;;;;;;;;;;;;;;;;;5089384;28;19924;-70
2021/12/13 03:12:39;;;;;;;;;;;;;;;;;;5087458;28;19924;-70
2021/12/13 03:15:05;;;;;;;;;;;;;;;;;;5087842;28;19939;-70
2021/12/13 03:17:32;;;;;;;;;;;;;;;;;;5089482;28;20324;-70
2021/12/13 03:19:59;;;;;;;;;;;;;;;;;;5085267;28;20016;-70
2021/12/13 03:22:26;;;;;;;;;;;;;;;;;;5090313;28;19924;-70
2021/12/13 03:24:53;;;;;;;;;;;;;;;;;;5086108;28;19932;-70
2021/12/13 03:27:20;;;;;;;;;;;;;;;;;;5088870;28;19931;-69
2021/12/13 03:29:48;;;;;;;;;;;;;;;;;;5084556;28;19924;-70
2021/12/13 03:32:15;;;;;;;;;;;;;;;;;;5089129;28;19927;-70
2021/12/13 03:34:42;;;;;;;;;;;;;;;;;;5085163;28;20277;-70
2021/12/13 03:37:09;;;;;;;;;;;;;;;;;;5089550;28;19924;-70
2021/12/13 03:39:36;;;;;;;;;;;;;;;;;;5091650;28;19924;-70
2021/12/13 03:42:03;;;;;;;;;;;;;;;;;;5087745;28;19928;-70
2021/12/13 03:44:30;;;;;;;;;;;;;;;;;;5087544;28;19924;-70
2021/12/13 03:46:56;;;;;;;;;;;;;;;;;;5081031;28;19928;-70
2021/12/13 03:49:23;;;;;;;;;;;;;;;;;;5089081;28;20389;-70
2021/12/13 03:51:50;;;;;;;;;;;;;;;;;;5087573;28;19924;-71
2021/12/13 03:54:17;;;;;;;;;;;;;;;;;;5088404;28;19924;-70
2021/12/13 03:56:44;;;;;;;;;;;;;;;;;;5088041;28;19985;-70
2021/12/13 03:59:12;;;;;;;;;;;;;;;;;;5087460;28;19935;-70
2021/12/13 04:01:41;;;;;;;;;;;;;;;;;;5087005;28;19924;-70
2021/12/13 04:04:07;;;;;;;;;;;;;;;;;;5085607;28;20488;-70
2021/12/13 04:06:34;;;;;;;;;;;;;;;;;;5087674;28;19928;-70
2021/12/13 04:09:01;;;;;;;;;;;;;;;;;;5084848;28;19924;-69
2021/12/13 04:11:28;;;;;;;;;;;;;;;;;;5083222;28;19924;-69
2021/12/13 04:13:57;;;;;;;;;;;;;;;;;;5089149;28;19924;-69
2021/12/13 04:16:33;;;;;;;;;;;;;;;;;;5083482;28;20301;-69
2021/12/13 04:19:09;;;;;;;;;;;;;;;;;;5086268;28;19929;-69
2021/12/13 04:21:36;;;;;;;;;;;;;;;;;;5091745;28;20431;-69
2021/12/13 04:24:03;;;;;;;;;;;;;;;;;;5086998;28;19924;-69
2021/12/13 04:26:31;;;;;;;;;;;;;;;;;;5088071;28;20408;-70
2021/12/13 04:28:57;;;;;;;;;;;;;;;;;;5089895;28;20015;-69
2021/12/13 04:31:24;;;;;;;;;;;;;;;;;;5084452;28;20041;-69
2021/12/13 04:33:51;;;;;;;;;;;;;;;;;;5081820;28;20014;-69
2021/12/13 04:36:18;;;;;;;;;;;;;;;;;;5088796;28;19946;-69
2021/12/13 04:38:50;;;;;;;;;;;;;;;;;;5086688;28;19924;-70
2021/12/13 04:41:17;;;;;;;;;;;;;;;;;;5089532;28;20278;-70
2021/12/13 04:43:44;;;;;;;;;;;;;;;;;;5084718;28;20588;-69
2021/12/13 04:46:10;;;;;;;;;;;;;;;;;;5085715;28;20298;-70
2021/12/13 04:48:37;;;;;;;;;;;;;;;;;;5086682;28;19924;-70
2021/12/13 04:51:04;;;;;;;;;;;;;;;;;;5089898;28;19938;-70
2021/12/13 04:53:31;;;;;;;;;;;;;;;;;;5085452;28;20289;-70
2021/12/13 04:55:58;;;;;;;;;;;;;;;;;;5083707;28;19935;-70
2021/12/13 04:58:25;;;;;;;;;;;;;;;;;;5087855;28;19924;-71
2021/12/13 05:00:52;;;;;;;;;;;;;;;;;;5089018;28;19924;-70
2021/12/13 05:03:19;;;;;;;;;;;;;;;;;;5087592;28;19924;-70
2021/12/13 05:05:46;;;;;;;;;;;;;;;;;;5085696;28;19924;-70
2021/12/13 05:08:14;;;;;;;;;;;;;;;;;;5086708;28;19925;-70
2021/12/13 05:10:43;;;;;;;;;;;;;;;;;;5087306;28;20405;-70
2021/12/13 05:13:10;;;;;;;;;;;;;;;;;;5085739;28;19946;-70
2021/12/13 05:15:37;;;;;;;;;;;;;;;;;;5084345;28;19924;-70
2021/12/13 05:18:04;;;;;;;;;;;;;;;;;;5086475;28;19924;-70
2021/12/13 05:20:31;;;;;;;;;;;;;;;;;;5088308;28;19934;-70
2021/12/13 05:22:58;;;;;;;;;;;;;;;;;;5087763;28;19924;-70
2021/12/13 05:25:25;;;;;;;;;;;;;;;;;;5080919;28;19951;-70
2021/12/13 05:27:52;;;;;;;;;;;;;;;;;;5085445;28;19924;-70
2021/12/13 05:30:19;;;;;;;;;;;;;;;;;;5080966;28;19928;-69
2021/12/13 05:32:46;;;;;;;;;;;;;;;;;;5086006;28;19936;-70
2021/12/13 05:35:13;;;;;;;;;;;;;;;;;;5080532;28;19931;-71
2021/12/13 05:37:40;;;;;;;;;;;;;;;;;;5084036;28;19924;-70
2021/12/13 05:40:07;;;;;;;;;;;;;;;;;;5085645;28;19932;-69
2021/12/13 05:42:34;;;;;;;;;;;;;;;;;;5088253;28;20311;-69
2021/12/13 05:45:00;;;;;;;;;;;;;;;;;;5087541;28;20363;-69
2021/12/13 05:47:27;;;;;;;;;;;;;;;;;;5083186;28;20297;-69
2021/12/13 05:49:54;;;;;;;;;;;;;;;;;;5080446;28;19931;-69
2021/12/13 05:52:21;;;;;;;;;;;;;;;;;;5082866;28;19931;-70
2021/12/13 05:54:48;;;;;;;;;;;;;;;;;;5086037;28;19924;-69
2021/12/13 05:57:15;;;;;;;;;;;;;;;;;;5083641;28;19936;-69
2021/12/13 05:59:42;;;;;;;;;;;;;;;;;;5084814;28;20289;-69
2021/12/13 06:02:11;;;;;;;;;;;;;;;;;;5078583;28;19944;-69
2021/12/13 06:04:38;;;;;;;;;;;;;;;;;;5077165;28;19928;-69
2021/12/13 06:07:04;;;;;;;;;;;;;;;;;;5081383;28;19928;-70
2021/12/13 06:09:32;;;;;;;;;;;;;;;;;;5086757;28;19931;-69
2021/12/13 06:11:59;;;;;;;;;;;;;;;;;;5093926;28;20434;-70
2021/12/13 06:14:25;;;;;;;;;;;;;;;;;;5088029;28;19925;-70
2021/12/13 06:16:52;;;;;;;;;;;;;;;;;;5089327;28;20415;-70
2021/12/13 06:19:19;;;;;;;;;;;;;;;;;;5087779;28;19931;-70
2021/12/13 06:21:46;;;;;;;;;;;;;;;;;;5093920;28;19924;-69
2021/12/13 06:24:13;;;;;;;;;;;;;;;;;;5093889;28;20379;-69
2021/12/13 06:26:40;;;;;;;;;;;;;;;;;;5094446;28;20002;-69
2021/12/13 06:29:07;;;;;;;;;;;;;;;;;;5085845;28;19955;-70
2021/12/13 06:31:34;;;;;;;;;;;;;;;;;;5092795;28;19924;-70
2021/12/13 06:34:01;;;;;;;;;;;;;;;;;;5088307;28;19924;-70
2021/12/13 06:36:28;;;;;;;;;;;;;;;;;;5083717;28;21147;-69
2021/12/13 06:38:55;;;;;;;;;;;;;;;;;;5077039;28;19935;-68
2021/12/13 06:41:22;;;;;;;;;;;;;;;;;;5087698;28;20377;-70
2021/12/13 06:43:49;;;;;;;;;;;;;;;;;;5087168;28;19924;-69
2021/12/13 06:46:16;;;;;;;;;;;;;;;;;;5090750;28;19924;-69
2021/12/13 06:48:43;;;;;;;;;;;;;;;;;;5084329;28;19932;-69
2021/12/13 06:51:10;;;;;;;;;;;;;;;;;;5080148;28;19935;-69
2021/12/13 06:53:37;;;;;;;;;;;;;;;;;;5079373;28;21062;-69
2021/12/13 06:56:04;;;;;;;;;;;;;;;;;;5075073;28;19931;-69
2021/12/13 06:58:31;;;;;;;;;;;;;;;;;;5079796;28;19928;-70
2021/12/13 07:00:58;;;;;;;;;;;;;;;;;;5084754;28;20293;-69
2021/12/13 07:03:26;;;;;;;;;;;;;;;;;;5082011;28;19924;-69
2021/12/13 07:05:53;;;;;;;;;;;;;;;;;;5087395;28;19928;-70
2021/12/13 07:08:20;;;;;;;;;;;;;;;;;;5087827;28;19935;-68
2021/12/13 07:10:47;;;;;;;;;;;;;;;;;;5086023;28;19923;-69
2021/12/13 07:13:14;;;;;;;;;;;;;;;;;;5085674;28;20314;-69
2021/12/13 07:15:41;;;;;;;;;;;;;;;;;;5088086;28;19931;-69
2021/12/13 07:18:08;;;;;;;;;;;;;;;;;;5086279;28;19932;-69
2021/12/13 07:20:35;;;;;;;;;;;;;;;;;;5088375;28;20567;-69
2021/12/13 07:23:02;;;;;;;;;;;;;;;;;;5086427;28;19925;-69
2021/12/13 07:25:28;;;;;;;;;;;;;;;;;;5086219;28;19924;-69
2021/12/13 07:27:55;;;;;;;;;;;;;;;;;;5085345;28;20302;-69
2021/12/13 07:30:22;;;;;;;;;;;;;;;;;;5089981;28;19924;-68
2021/12/13 07:32:50;;;;;;;;;;;;;;;;;;5088192;28;20301;-69
2021/12/13 07:35:17;;;;;;;;;;;;;;;;;;5087424;28;20440;-69
2021/12/13 07:37:44;;;;;;;;;;;;;;;;;;5084402;28;19977;-69
2021/12/13 07:40:11;;;;;;;;;;;;;;;;;;5087129;28;19924;-69
2021/12/13 07:42:38;;;;;;;;;;;;;;;;;;5085658;28;19924;-69
2021/12/13 07:45:05;;;;;;;;;;;;;;;;;;5088738;28;19929;-70
2021/12/13 07:47:32;;;;;;;;;;;;;;;;;;5083713;28;20325;-69
2021/12/13 07:49:58;;;;;;;;;;;;;;;;;;5087570;28;19928;-69
2021/12/13 07:52:25;;;;;;;;;;;;;;;;;;5085972;28;19935;-69
2021/12/13 07:54:52;;;;;;;;;;;;;;;;;;5087288;28;20289;-69
2021/12/13 07:57:22;;;;;;;;;;;;;;;;;;5082994;28;19924;-69
2021/12/13 07:59:49;;;;;;;;;;;;;;;;;;5089795;28;19947;-69
2021/12/13 08:02:16;;;;;;;;;;;;;;;;;;5086367;28;20296;-69
2021/12/13 08:04:43;;;;;;;;;;;;;;;;;;5079378;28;19928;-69
2021/12/13 08:07:10;;;;;;;;;;;;;;;;;;5085500;28;19924;-69
2021/12/13 08:09:37;;;;;;;;;;;;;;;;;;5086621;28;20305;-70
2021/12/13 08:12:03;;;;;;;;;;;;;;;;;;5087660;28;19931;-70
2021/12/13 08:14:30;;;;;;;;;;;;;;;;;;5085512;28;19924;-69
2021/12/13 08:16:57;;;;;;;;;;;;;;;;;;5083685;28;19928;-69
2021/12/13 08:19:24;;;;;;;;;;;;;;;;;;5084077;28;19931;-69
2021/12/13 08:21:51;;;;;;;;;;;;;;;;;;5082696;28;19928;-70
2021/12/13 08:24:18;;;;;;;;;;;;;;;;;;5081582;28;19924;-69
2021/12/13 08:26:45;;;;;;;;;;;;;;;;;;5086172;28;19928;-69
2021/12/13 08:29:12;;;;;;;;;;;;;;;;;;5082319;28;19928;-69
2021/12/13 08:31:39;;;;;;;;;;;;;;;;;;5087831;28;20297;-70
2021/12/13 08:34:06;;;;;;;;;;;;;;;;;;5084488;28;20435;-69
2021/12/13 08:36:33;;;;;;;;;;;;;;;;;;5083477;28;19929;-69
2021/12/13 08:39:00;;;;;;;;;;;;;;;;;;5086552;28;19931;-69
2021/12/13 08:41:27;;;;;;;;;;;;;;;;;;5086004;28;19931;-68
2021/12/13 08:43:54;;;;;;;;;;;;;;;;;;5078141;28;19924;-68
2021/12/13 08:46:21;;;;;;;;;;;;;;;;;;5087394;28;19924;-68
2021/12/13 08:48:48;;;;;;;;;;;;;;;;;;5084981;28;20412;-69
2021/12/13 08:51:15;;;;;;;;;;;;;;;;;;5085912;28;19924;-70
2021/12/13 08:53:42;;;;;;;;;;;;;;;;;;5076191;28;19924;-69
2021/12/13 08:56:09;;;;;;;;;;;;;;;;;;5085089;28;19931;-69
2021/12/13 08:58:36;;;;;;;;;;;;;;;;;;5080430;28;19935;-69
2021/12/13 09:01:03;;;;;;;;;;;;;;;;;;5085810;28;19924;-69
2021/12/13 09:03:30;;;;;;;;;;;;;;;;;;5082417;28;19931;-70
2021/12/13 09:05:57;;;;;;;;;;;;;;;;;;5081593;28;19978;-69
2021/12/13 09:08:24;;;;;;;;;;;;;;;;;;5082789;28;19924;-69
2021/12/13 09:10:51;;;;;;;;;;;;;;;;;;5086444;28;19924;-70
2021/12/13 09:13:18;;;;;;;;;;;;;;;;;;5083805;28;19924;-69
2021/12/13 09:15:45;;;;;;;;;;;;;;;;;;5084863;28;20006;-69
2021/12/13 09:18:12;;;;;;;;;;;;;;;;;;5084666;28;20401;-69
2021/12/13 09:20:39;;;;;;;;;;;;;;;;;;5082185;28;19925;-68
2021/12/13 09:23:06;;;;;;;;;;;;;;;;;;5085432;28;19966;-69
2021/12/13 09:25:33;;;;;;;;;;;;;;;;;;5083146;28;19939;-68
2021/12/13 09:28:01;;;;;;;;;;;;;;;;;;5079676;28;19932;-68
2021/12/13 09:30:28;;;;;;;;;;;;;;;;;;5085220;28;19924;-68
2021/12/13 09:32:55;;;;;;;;;;;;;;;;;;5085210;28;19925;-69
2021/12/13 09:35:22;;;;;;;;;;;;;;;;;;5084152;28;19924;-69
2021/12/13 09:37:49;;;;;;;;;;;;;;;;;;5083568;28;20000;-69
2021/12/13 09:40:16;;;;;;;;;;;;;;;;;;5084346;28;19939;-69
2021/12/13 09:42:43;;;;;;;;;;;;;;;;;;5086129;28;19928;-70
2021/12/13 09:45:12;;;;;;;;;;;;;;;;;;5084584;28;19928;-69
2021/12/13 09:47:39;;;;;;;;;;;;;;;;;;5083324;28;20432;-68
2021/12/13 09:50:09;;;;;;;;;;;;;;;;;;5084654;28;20284;-69
2021/12/13 09:55:20;;;;;;;;;;;;;;;;;;5080798;28;19966;-68
2021/12/13 09:57:47;;;;;;;;;;;;;;;;;;5085793;28;19924;-68
2021/12/13 10:00:14;;;;;;;;;;;;;;;;;;5084793;28;20528;-69
2021/12/13 10:02:41;;;;;;;;;;;;;;;;;;5081744;28;19974;-69
2021/12/13 10:05:08;;;;;;;;;;;;;;;;;;5081929;28;20374;-68
2021/12/13 10:07:35;;;;;;;;;;;;;;;;;;5086036;28;19931;-68
2021/12/13 10:10:02;;;;;;;;;;;;;;;;;;5086030;28;19931;-68
2021/12/13 10:12:30;;;;;;;;;;;;;;;;;;5085502;28;19931;-69
2021/12/13 10:14:57;;;;;;;;;;;;;;;;;;5083346;28;19979;-68
2021/12/13 10:17:24;;;;;;;;;;;;;;;;;;5081854;28;19955;-70
2021/12/13 10:19:51;;;;;;;;;;;;;;;;;;5085353;28;20405;-70
2021/12/13 10:22:18;;;;;;;;;;;;;;;;;;5084591;28;20285;-70
2021/12/13 10:24:45;;;;;;;;;;;;;;;;;;5083385;28;19951;-71
2021/12/13 10:27:12;;;;;;;;;;;;;;;;;;5085319;28;19934;-69
2021/12/13 10:29:39;;;;;;;;;;;;;;;;;;5086111;28;20318;-70
2021/12/13 10:32:06;;;;;;;;;;;;;;;;;;5086230;28;19924;-68
2021/12/13 10:34:33;;;;;;;;;;;;;;;;;;5080130;28;20293;-68
2021/12/13 10:37:00;;;;;;;;;;;;;;;;;;5086511;28;19924;-68
2021/12/13 10:39:27;;;;;;;;;;;;;;;;;;5082702;28;19931;-68
2021/12/13 10:41:54;;;;;;;;;;;;;;;;;;5083995;28;20292;-68
2021/12/13 10:44:25;;;;;;;;;;;;;;;;;;5084020;28;19947;-68
2021/12/13 10:46:55;;;;;;;;;;;;;;;;;;5083217;28;20292;-68
2021/12/13 10:49:22;;;;;;;;;;;;;;;;;;5085712;28;20449;-69
2021/12/13 10:51:54;;;;;;;;;;;;;;;;;;5086352;28;20411;-68
2021/12/13 10:54:21;;;;;;;;;;;;;;;;;;5085687;28;19931;-69
2021/12/13 10:56:48;;;;;;;;;;;;;;;;;;5087768;28;19927;-69
2021/12/13 10:59:16;;;;;;;;;;;;;;;;;;5088423;28;19925;-68
2021/12/13 11:01:43;;;;;;;;;;;;;;;;;;5086038;28;20013;-69
2021/12/13 11:04:10;;;;;;;;;;;;;;;;;;5101083;22;19935;31
2021/12/13 11:06:37;;;;;;;;;;;;;;;;;;5007222;28;20049;-66
2021/12/13 11:09:04;;;;;;;;;;;;;;;;;;5018196;28;19932;-66
2021/12/13 11:11:31;;;;;;;;;;;;;;;;;;5026532;28;20405;-66
2021/12/13 11:13:58;;;;;;;;;;;;;;;;;;5025096;28;20379;-66
2021/12/13 11:16:25;;;;;;;;;;;;;;;;;;5010400;28;19925;-68
2021/12/13 11:18:52;;;;;;;;;;;;;;;;;;5012310;28;19933;-65
2021/12/13 11:21:19;;;;;;;;;;;;;;;;;;5013853;28;20302;-65
2021/12/13 11:23:45;;;;;;;;;;;;;;;;;;5016712;28;20012;-65
2021/12/13 11:26:12;;;;;;;;;;;;;;;;;;5012342;28;19932;-66
2021/12/13 11:28:40;;;;;;;;;;;;;;;;;;5015557;28;19968;-65
2021/12/13 11:31:07;;;;;;;;;;;;;;;;;;5009528;28;19933;-66
2021/12/13 11:33:34;;;;;;;;;;;;;;;;;;5005429;28;19929;-66
2021/12/13 11:36:01;;;;;;;;;;;;;;;;;;5014060;28;19929;-66
2021/12/13 11:38:28;;;;;;;;;;;;;;;;;;5016577;28;19933;-67
2021/12/13 11:40:55;;;;;;;;;;;;;;;;;;5014891;28;19930;-65
2021/12/13 11:43:21;;;;;;;;;;;;;;;;;;5014621;28;19926;-66
2021/12/13 11:45:48;;;;;;;;;;;;;;;;;;5004841;28;19926;-66
2021/12/13 11:48:15;;;;;;;;;;;;;;;;;;5018470;28;19932;-66
2021/12/13 11:50:42;;;;;;;;;;;;;;;;;;5014795;28;20394;-66
2021/12/13 11:53:09;;;;;;;;;;;;;;;;;;5016890;28;19931;-66
2021/12/13 11:55:36;;;;;;;;;;;;;;;;;;5017800;28;19929;-66
2021/12/13 11:58:03;;;;;;;;;;;;;;;;;;5015041;28;20382;-66
2021/12/13 12:00:30;;;;;;;;;;;;;;;;;;5017032;28;19965;-65
2021/12/13 12:02:57;;;;;;;;;;;;;;;;;;5011273;28;20384;-66
2021/12/13 12:05:24;;;;;;;;;;;;;;;;;;5015622;28;19951;-66
2021/12/13 12:07:51;;;;;;;;;;;;;;;;;;5026296;28;19932;-66
2021/12/13 12:10:20;;;;;;;;;;;;;;;;;;5033975;28;19925;-66
2021/12/13 12:12:47;;;;;;;;;;;;;;;;;;5034355;28;19933;-67
2021/12/13 12:15:14;;;;;;;;;;;;;;;;;;5031697;28;20286;-67
2021/12/13 12:17:41;;;;;;;;;;;;;;;;;;5030292;28;19929;-67
2021/12/13 12:20:08;;;;;;;;;;;;;;;;;;5035006;28;19925;-68
2021/12/13 12:22:35;;;;;;;;;;;;;;;;;;5037356;28;19932;-66
2021/12/13 12:25:02;;;;;;;;;;;;;;;;;;5028179;28;19925;-66
2021/12/13 12:27:29;;;;;;;;;;;;;;;;;;5030409;28;20059;-66
2021/12/13 12:29:56;;;;;;;;;;;;;;;;;;5027988;28;19932;-66
2021/12/13 12:32:23;;;;;;;;;;;;;;;;;;5033804;28;19925;-66
2021/12/13 12:34:50;;;;;;;;;;;;;;;;;;5025385;28;19977;-66
2021/12/13 12:37:18;;;;;;;;;;;;;;;;;;5036152;28;20011;-66
2021/12/13 12:39:45;;;;;;;;;;;;;;;;;;5033609;28;19961;-66
2021/12/13 12:42:12;;;;;;;;;;;;;;;;;;5034057;28;19970;-66
2021/12/13 12:44:40;;;;;;;;;;;;;;;;;;5014454;28;19929;-66
2021/12/13 12:47:07;;;;;;;;;;;;;;;;;;5023148;28;19929;-66
2021/12/13 12:49:34;;;;;;;;;;;;;;;;;;5017709;28;19925;-67
2021/12/13 12:52:01;;;;;;;;;;;;;;;;;;5023726;28;19933;-66
2021/12/13 12:54:31;;;;;;;;;;;;;;;;;;5022417;28;19925;-68
2021/12/13 12:56:58;;;;;;;;;;;;;;;;;;5023842;28;20294;-67
2021/12/13 12:59:25;;;;;;;;;;;;;;;;;;5024385;28;19952;-65
2021/12/13 13:01:55;;;;;;;;;;;;;;;;;;5032865;28;19929;-67
2021/12/13 13:04:22;;;;;;;;;;;;;;;;;;5031936;28;19929;-65
2021/12/13 13:06:49;;;;;;;;;;;;;;;;;;5034286;28;20283;-66
2021/12/13 13:09:16;;;;;;;;;;;;;;;;;;5020545;28;19926;-66
2021/12/13 13:11:43;;;;;;;;;;;;;;;;;;5023729;28;19937;-65
2021/12/13 13:14:10;;;;;;;;;;;;;;;;;;5033244;28;19935;-66
2021/12/13 13:16:37;;;;;;;;;;;;;;;;;;5027165;28;19924;-66
2021/12/13 13:19:04;;;;;;;;;;;;;;;;;;5031849;28;19925;-66
2021/12/13 13:21:31;;;;;;;;;;;;;;;;;;5031806;28;20023;-66
2021/12/13 13:23:59;;;;;;;;;;;;;;;;;;5028925;28;19950;-65
2021/12/13 13:26:26;;;;;;;;;;;;;;;;;;5031378;28;19934;-65
2021/12/13 13:28:53;;;;;;;;;;;;;;;;;;5022758;28;20139;-66
2021/12/13 13:31:20;;;;;;;;;;;;;;;;;;5022258;28;20275;-65
2021/12/13 13:33:47;;;;;;;;;;;;;;;;;;5035622;28;19924;-65
2021/12/13 13:36:14;;;;;;;;;;;;;;;;;;5025376;28;19933;-65
2021/12/13 13:38:41;;;;;;;;;;;;;;;;;;5031472;28;19964;-65
2021/12/13 13:41:08;;;;;;;;;;;;;;;;;;5024295;28;19933;-65
2021/12/13 13:43:39;;;;;;;;;;;;;;;;;;5035662;28;19925;-65
2021/12/13 13:46:06;;;;;;;;;;;;;;;;;;5032575;28;19937;-64
2021/12/13 13:48:33;;;;;;;;;;;;;;;;;;5027998;28;20028;-65
2021/12/13 13:51:00;;;;;;;;;;;;;;;;;;5030404;28;20306;-66
2021/12/13 13:53:27;;;;;;;;;;;;;;;;;;5034381;28;20373;-66
2021/12/13 13:55:54;;;;;;;;;;;;;;;;;;5033488;28;19925;-66
2021/12/13 13:58:21;;;;;;;;;;;;;;;;;;5027709;28;19945;-66
2021/12/13 14:00:48;;;;;;;;;;;;;;;;;;5034052;28;19968;-66
2021/12/13 14:03:15;;;;;;;;;;;;;;;;;;5023722;28;20446;-66
2021/12/13 14:05:42;;;;;;;;;;;;;;;;;;5030901;28;20035;-66
2021/12/13 14:08:09;;;;;;;;;;;;;;;;;;5026185;28;19925;-67
2021/12/13 14:10:36;;;;;;;;;;;;;;;;;;5023483;28;20295;-66
2021/12/13 14:13:03;;;;;;;;;;;;;;;;;;5031507;28;20430;-66
2021/12/13 14:15:30;;;;;;;;;;;;;;;;;;5032370;28;20303;-66
2021/12/13 14:17:56;;;;;;;;;;;;;;;;;;5033699;28;19929;-66
2021/12/13 14:20:23;;;;;;;;;;;;;;;;;;5033234;28;20305;-66
2021/12/13 14:22:50;;;;;;;;;;;;;;;;;;5033280;28;20460;-66
2021/12/13 14:25:17;;;;;;;;;;;;;;;;;;5028311;28;20301;-66
2021/12/13 14:27:44;;;;;;;;;;;;;;;;;;5025433;28;20349;-66
2021/12/13 14:30:11;;;;;;;;;;;;;;;;;;5023392;28;20282;-67
2021/12/13 14:32:38;;;;;;;;;;;;;;;;;;5019170;28;19956;-66
2021/12/13 14:35:05;;;;;;;;;;;;;;;;;;5029975;28;19937;-65
2021/12/13 14:37:32;;;;;;;;;;;;;;;;;;5035370;28;19931;-65
2021/12/13 14:39:59;;;;;;;;;;;;;;;;;;5029279;28;19933;-64
2021/12/13 14:42:26;;;;;;;;;;;;;;;;;;5038186;28;19928;-66
2021/12/13 14:44:53;;;;;;;;;;;;;;;;;;5014920;28;19932;-66
2021/12/13 14:47:20;;;;;;;;;;;;;;;;;;5035486;28;19924;-65
2021/12/13 14:49:47;;;;;;;;;;;;;;;;;;5030208;28;19925;-65
2021/12/13 14:52:15;;;;;;;;;;;;;;;;;;5031503;28;20298;-66
2021/12/13 14:54:42;;;;;;;;;;;;;;;;;;5034356;28;19925;-66
2021/12/13 14:57:09;;;;;;;;;;;;;;;;;;5030837;28;20352;-66
2021/12/13 14:59:36;;;;;;;;;;;;;;;;;;5037282;28;19932;-65
2021/12/13 15:02:03;;;;;;;;;;;;;;;;;;5028510;28;19929;-67
2021/12/13 15:04:30;;;;;;;;;;;;;;;;;;5032887;28;20019;-65
2021/12/13 15:06:57;;;;;;;;;;;;;;;;;;5032757;28;19960;-66
2021/12/13 15:09:24;;;;;;;;;;;;;;;;;;5027566;28;19931;-66
2021/12/13 15:11:51;;;;;;;;;;;;;;;;;;5029783;28;19968;-66
2021/12/13 15:14:18;;;;;;;;;;;;;;;;;;5036271;28;19925;-66
2021/12/13 15:16:45;;;;;;;;;;;;;;;;;;5037759;28;19925;-66
2021/12/13 15:19:12;;;;;;;;;;;;;;;;;;5033712;28;19932;-66
2021/12/13 15:21:40;;;;;;;;;;;;;;;;;;5036486;28;19932;-66
2021/12/13 15:24:07;;;;;;;;;;;;;;;;;;5031040;28;20016;-67
2021/12/13 15:26:34;;;;;;;;;;;;;;;;;;5036469;28;19924;-67
2021/12/13 15:29:01;;;;;;;;;;;;;;;;;;5033507;28;20012;-66
2021/12/13 15:31:28;;;;;;;;;;;;;;;;;;5034860;28;20305;-66
2021/12/13 15:33:55;;;;;;;;;;;;;;;;;;5031022;28;19925;-65
2021/12/13 15:36:22;;;;;;;;;;;;;;;;;;5030925;28;19932;-65
2021/12/13 15:38:49;;;;;;;;;;;;;;;;;;5027116;28;19925;-67
2021/12/13 15:41:18;;;;;;;;;;;;;;;;;;5023836;28;20291;-65
2021/12/13 15:43:44;;;;;;;;;;;;;;;;;;5035408;28;19933;-66
2021/12/13 15:46:11;;;;;;;;;;;;;;;;;;5036194;28;20579;-66
2021/12/13 15:51:23;;;;;;;;;;;;;;;;;;5032081;28;19920;-65
2021/12/13 15:53:50;;;;;;;;;;;;;;;;;;5029010;28;19926;-66
2021/12/13 15:56:17;;;;;;;;;;;;;;;;;;5031666;28;19968;-66
2021/12/13 15:58:44;;;;;;;;;;;;;;;;;;5032200;28;20382;-66
2021/12/13 16:01:11;;;;;;;;;;;;;;;;;;5035130;28;19929;-66
2021/12/13 16:03:38;;;;;;;;;;;;;;;;;;5035764;28;19932;-66
2021/12/13 16:06:06;;;;;;;;;;;;;;;;;;5037837;28;20294;-66
2021/12/13 16:08:33;;;;;;;;;;;;;;;;;;5033908;28;20407;-66
2021/12/13 16:11:00;;;;;;;;;;;;;;;;;;5028400;28;19925;-66
2021/12/13 16:13:27;;;;;;;;;;;;;;;;;;5029907;28;19936;-66
2021/12/13 16:15:54;;;;;;;;;;;;;;;;;;5034422;28;19925;-65
2021/12/13 16:18:21;;;;;;;;;;;;;;;;;;5028976;28;20569;-66
2021/12/13 16:20:50;;;;;;;;;;;;;;;;;;5038518;28;19924;-66
2021/12/13 16:23:18;;;;;;;;;;;;;;;;;;5035792;28;19940;-65
2021/12/13 16:25:45;;;;;;;;;;;;;;;;;;5031864;28;20059;-65
2021/12/13 16:28:12;;;;;;;;;;;;;;;;;;5026850;28;20429;-65
2021/12/13 16:30:39;;;;;;;;;;;;;;;;;;5037601;28;19925;-65
2021/12/13 16:33:06;;;;;;;;;;;;;;;;;;5033915;28;19929;-66
2021/12/13 16:35:33;;;;;;;;;;;;;;;;;;5035381;28;20417;-66
2021/12/13 16:38:00;;;;;;;;;;;;;;;;;;5025917;28;19925;-66
2021/12/13 16:40:27;;;;;;;;;;;;;;;;;;5031662;28;20395;-67
2021/12/13 16:42:54;;;;;;;;;;;;;;;;;;5035507;28;19933;-66
2021/12/13 16:45:21;;;;;;;;;;;;;;;;;;5031952;28;19939;-66
2021/12/13 16:47:48;;;;;;;;;;;;;;;;;;5031444;28;20031;-66
2021/12/13 16:50:15;;;;;;;;;;;;;;;;;;5039663;28;19924;-66
2021/12/13 16:52:42;;;;;;;;;;;;;;;;;;5033001;28;19986;-66